Wyndmere, North Dakota
Current Conditions -  °F | °C
As of 9:55 AM on Sunday 23 Nov 2014 (Local Time) from KGWR Reporting Station
Few Clouds Few Clouds  
Wind Chill: -1°   Ceiling: Unl
Heat Index:   Visibility: 10mi
Dew Point:   Wind: 12mph
Humidity: 93%   Direction: 270°W
Pressure: 29.47"   Gusts: NA
Location:  46.27°N, 97.13°W
Report Text: KGWR 231555Z AUTO 27010KT 10SM FEW043 03/02 A2947 RMK A01 P000
Loading
Personal Weather Stations






























Interactive Weather Map New forecast layout! Learn more

10-Day Weather Forecast

Advertisements
Track Severe Weather on mobile